Airfield :
LOGIN :

Register | Disclaimer

   EN    FR    IT 

 










Legend :    VFR   Marginal VFR   IFR   Intensive IFR   Very Intensive IFR
Visi :
Ceiling :
>= 8 km
>= 3000ft
5 to 8 km
1000 to 3000 ft
1500m to 5 km
500 to 1000 ft
800 to 1500m
200 to 500 ft
< 800m
< 200 ft
Symbols :   Thunderstorms  Fog  Heavy snow  Heavy precipitations  Wind > 20 kt
SIGMETs :     Misc.  Thunderstorms  Icing  Turbulence  Mountain Waves  Volcanic Ashes







- Airport Elevation : 499 ft
- IATA code : TLS
- Download approach charts


LFBO - Toulouse / Blagnac

CURRENT METAR :
  • 211430Z AUTO 31010KT 270V330 9999 FEW043 BKN070 23/13 Q1016 NOSIG

EXPIRED METARs :
  • 211400Z AUTO 28008KT 250V310 9999 FEW044 SCT058 BKN068 23/13 Q1016 NOSIG
  • 211330Z AUTO 31008KT 280V340 9999 FEW042 BKN068 23/13 Q1016 NOSIG
  • 211300Z AUTO 32010KT 280V350 9999 SCT038 SCT050 OVC068 22/14 Q1016 NOSIG
  • 211230Z AUTO 32008KT 270V350 9999 FEW031 OVC066 22/14 Q1016 NOSIG
  • 211200Z AUTO 32008KT 9999 FEW046 OVC060 21/15 Q1017 NOSIG

TAF TAF LFBO
Valid from the 21 at 12:00 until the 22 at 18:00 UTC


211100Z 2112/2218 31006KT 9999 BKN035 BKN045
BECMG 2115/2117 CAVOK
ATIS : +33 5 62 74 66 36
No reported NOTAMs for that airfield.



MET'MAP, your aeronautical weather chart ! - Copyright ORBIFLY December 2007 - Disclaimer

ORBIFLY MET'MAP TEAM :

Programming & Development : Alexandra Zaïnal
Concept & Development : Baudouin d'Aumeries
Co-Development & Prog : Marc-Olivier Méhu
Technical & hardware support : Manuel Goepfert

Contact : metmap@orbifly.com




SOURCES & CREDITS :

   NOAA